sensor_id;sensor_type;location;lat;lon;timestamp;P1;durP1;ratioP1;P2;durP2;ratioP2
57561;SDS011;43397;51.530;5.974;2023-06-10T00:01:59;12.13;;;10.40;;
57561;SDS011;43397;51.530;5.974;2023-06-10T00:04:25;12.15;;;10.32;;
57561;SDS011;43397;51.530;5.974;2023-06-10T00:06:52;12.05;;;10.60;;
57561;SDS011;43397;51.530;5.974;2023-06-10T00:09:17;12.30;;;10.27;;
57561;SDS011;43397;51.530;5.974;2023-06-10T00:11:43;11.73;;;10.52;;
57561;SDS011;43397;51.530;5.974;2023-06-10T00:14:09;14.02;;;12.00;;
57561;SDS011;43397;51.530;5.974;2023-06-10T00:16:35;11.43;;;10.23;;
57561;SDS011;43397;51.530;5.974;2023-06-10T00:19:00;12.30;;;11.10;;
57561;SDS011;43397;51.530;5.974;2023-06-10T00:21:26;13.85;;;10.57;;
57561;SDS011;43397;51.530;5.974;2023-06-10T00:23:54;14.13;;;10.55;;
57561;SDS011;43397;51.530;5.974;2023-06-10T00:26:20;14.52;;;11.32;;
57561;SDS011;43397;51.530;5.974;2023-06-10T00:28:46;14.75;;;13.13;;
57561;SDS011;43397;51.530;5.974;2023-06-10T00:31:11;17.40;;;13.68;;
57561;SDS011;43397;51.530;5.974;2023-06-10T00:33:37;15.90;;;13.18;;
57561;SDS011;43397;51.530;5.974;2023-06-10T00:36:03;15.45;;;13.85;;
57561;SDS011;43397;51.530;5.974;2023-06-10T00:38:28;16.60;;;14.90;;
57561;SDS011;43397;51.530;5.974;2023-06-10T00:40:55;16.25;;;14.50;;
57561;SDS011;43397;51.530;5.974;2023-06-10T00:43:21;17.65;;;15.88;;
57561;SDS011;43397;51.530;5.974;2023-06-10T00:45:47;17.20;;;15.52;;
57561;SDS011;43397;51.530;5.974;2023-06-10T00:48:12;15.98;;;14.45;;
57561;SDS011;43397;51.530;5.974;2023-06-10T00:50:38;15.95;;;14.35;;
57561;SDS011;43397;51.530;5.974;2023-06-10T00:53:04;15.15;;;13.65;;
57561;SDS011;43397;51.530;5.974;2023-06-10T00:55:30;14.63;;;13.13;;
57561;SDS011;43397;51.530;5.974;2023-06-10T00:57:58;15.13;;;13.52;;
57561;SDS011;43397;51.530;5.974;2023-06-10T01:00:24;14.60;;;12.88;;
57561;SDS011;43397;51.530;5.974;2023-06-10T01:02:50;14.73;;;12.52;;
57561;SDS011;43397;51.530;5.974;2023-06-10T01:05:16;13.32;;;11.93;;
57561;SDS011;43397;51.530;5.974;2023-06-10T01:07:43;13.23;;;11.85;;
57561;SDS011;43397;51.530;5.974;2023-06-10T01:10:16;13.23;;;11.93;;
57561;SDS011;43397;51.530;5.974;2023-06-10T01:12:49;12.25;;;10.95;;
57561;SDS011;43397;51.530;5.974;2023-06-10T01:15:23;13.20;;;11.23;;
57561;SDS011;43397;51.530;5.974;2023-06-10T01:17:58;12.93;;;11.50;;
57561;SDS011;43397;51.530;5.974;2023-06-10T01:20:25;15.10;;;11.63;;
57561;SDS011;43397;51.530;5.974;2023-06-10T01:22:52;13.90;;;11.48;;
57561;SDS011;43397;51.530;5.974;2023-06-10T01:25:18;13.02;;;11.73;;
57561;SDS011;43397;51.530;5.974;2023-06-10T01:27:44;14.00;;;12.02;;
57561;SDS011;43397;51.530;5.974;2023-06-10T01:30:14;12.77;;;11.02;;
57561;SDS011;43397;51.530;5.974;2023-06-10T01:32:44;13.18;;;11.88;;
57561;SDS011;43397;51.530;5.974;2023-06-10T01:35:11;12.95;;;11.52;;
57561;SDS011;43397;51.530;5.974;2023-06-10T01:37:38;12.93;;;11.60;;
57561;SDS011;43397;51.530;5.974;2023-06-10T01:40:07;13.70;;;12.15;;
57561;SDS011;43397;51.530;5.974;2023-06-10T01:42:34;14.25;;;12.18;;
57561;SDS011;43397;51.530;5.974;2023-06-10T01:45:00;13.63;;;12.23;;
57561;SDS011;43397;51.530;5.974;2023-06-10T01:47:26;13.50;;;11.88;;
57561;SDS011;43397;51.530;5.974;2023-06-10T01:49:51;13.73;;;12.23;;
57561;SDS011;43397;51.530;5.974;2023-06-10T01:52:17;16.58;;;12.05;;
57561;SDS011;43397;51.530;5.974;2023-06-10T01:54:43;14.73;;;12.38;;
57561;SDS011;43397;51.530;5.974;2023-06-10T01:57:10;13.38;;;11.88;;
57561;SDS011;43397;51.530;5.974;2023-06-10T01:59:36;15.13;;;13.25;;
57561;SDS011;43397;51.530;5.974;2023-06-10T02:02:01;13.00;;;11.60;;
57561;SDS011;43397;51.530;5.974;2023-06-10T02:04:27;14.02;;;12.50;;
57561;SDS011;43397;51.530;5.974;2023-06-10T02:06:53;14.75;;;13.07;;
57561;SDS011;43397;51.530;5.974;2023-06-10T02:09:19;15.13;;;12.82;;
57561;SDS011;43397;51.530;5.974;2023-06-10T02:11:44;16.23;;;13.85;;
57561;SDS011;43397;51.530;5.974;2023-06-10T02:14:11;14.45;;;13.05;;
57561;SDS011;43397;51.530;5.974;2023-06-10T02:16:37;16.02;;;13.93;;
57561;SDS011;43397;51.530;5.974;2023-06-10T02:19:03;15.40;;;13.70;;
57561;SDS011;43397;51.530;5.974;2023-06-10T02:21:28;16.23;;;13.93;;
57561;SDS011;43397;51.530;5.974;2023-06-10T02:23:54;16.48;;;14.77;;
57561;SDS011;43397;51.530;5.974;2023-06-10T02:26:20;15.45;;;13.38;;
57561;SDS011;43397;51.530;5.974;2023-06-10T02:28:45;15.52;;;13.88;;
57561;SDS011;43397;51.530;5.974;2023-06-10T02:31:12;15.50;;;13.95;;
57561;SDS011;43397;51.530;5.974;2023-06-10T02:33:38;16.08;;;13.95;;
57561;SDS011;43397;51.530;5.974;2023-06-10T02:36:04;16.23;;;14.63;;
57561;SDS011;43397;51.530;5.974;2023-06-10T02:38:30;17.88;;;14.18;;
57561;SDS011;43397;51.530;5.974;2023-06-10T02:40:55;17.42;;;14.68;;
57561;SDS011;43397;51.530;5.974;2023-06-10T02:43:21;19.52;;;15.02;;
57561;SDS011;43397;51.530;5.974;2023-06-10T02:45:47;15.05;;;13.55;;
57561;SDS011;43397;51.530;5.974;2023-06-10T02:48:14;17.27;;;15.45;;
57561;SDS011;43397;51.530;5.974;2023-06-10T02:50:39;17.55;;;14.40;;
57561;SDS011;43397;51.530;5.974;2023-06-10T02:53:05;17.02;;;15.23;;
57561;SDS011;43397;51.530;5.974;2023-06-10T02:55:31;17.58;;;15.68;;
57561;SDS011;43397;51.530;5.974;2023-06-10T02:57:56;16.98;;;14.82;;
57561;SDS011;43397;51.530;5.974;2023-06-10T03:00:22;16.83;;;14.90;;
57561;SDS011;43397;51.530;5.974;2023-06-10T03:02:48;17.63;;;15.73;;
57561;SDS011;43397;51.530;5.974;2023-06-10T03:05:15;17.38;;;15.57;;
57561;SDS011;43397;51.530;5.974;2023-06-10T03:07:40;17.55;;;15.73;;
57561;SDS011;43397;51.530;5.974;2023-06-10T03:10:07;18.25;;;15.40;;
57561;SDS011;43397;51.530;5.974;2023-06-10T03:12:33;17.23;;;15.50;;
57561;SDS011;43397;51.530;5.974;2023-06-10T03:14:58;18.20;;;15.23;;
57561;SDS011;43397;51.530;5.974;2023-06-10T03:17:24;17.42;;;15.48;;
57561;SDS011;43397;51.530;5.974;2023-06-10T03:19:50;18.20;;;16.30;;
57561;SDS011;43397;51.530;5.974;2023-06-10T03:22:17;18.52;;;16.27;;
57561;SDS011;43397;51.530;5.974;2023-06-10T03:24:42;19.35;;;16.77;;
57561;SDS011;43397;51.530;5.974;2023-06-10T03:27:08;17.83;;;16.02;;
57561;SDS011;43397;51.530;5.974;2023-06-10T03:29:34;19.17;;;16.98;;
57561;SDS011;43397;51.530;5.974;2023-06-10T03:32:00;19.20;;;17.13;;
57561;SDS011;43397;51.530;5.974;2023-06-10T03:34:26;19.35;;;16.45;;
57561;SDS011;43397;51.530;5.974;2023-06-10T03:36:52;18.45;;;16.60;;
57561;SDS011;43397;51.530;5.974;2023-06-10T03:39:19;18.90;;;16.98;;
57561;SDS011;43397;51.530;5.974;2023-06-10T03:41:44;18.48;;;16.52;;
57561;SDS011;43397;51.530;5.974;2023-06-10T03:44:10;18.40;;;16.35;;
57561;SDS011;43397;51.530;5.974;2023-06-10T03:46:36;18.73;;;16.65;;
57561;SDS011;43397;51.530;5.974;2023-06-10T03:49:01;18.75;;;16.85;;
57561;SDS011;43397;51.530;5.974;2023-06-10T03:51:27;17.85;;;16.08;;
57561;SDS011;43397;51.530;5.974;2023-06-10T03:53:53;22.17;;;17.38;;
57561;SDS011;43397;51.530;5.974;2023-06-10T03:56:20;18.83;;;16.85;;
57561;SDS011;43397;51.530;5.974;2023-06-10T03:58:45;17.63;;;15.93;;
57561;SDS011;43397;51.530;5.974;2023-06-10T04:01:11;17.48;;;15.68;;
57561;SDS011;43397;51.530;5.974;2023-06-10T04:03:37;19.58;;;16.17;;
57561;SDS011;43397;51.530;5.974;2023-06-10T04:06:02;19.10;;;17.10;;
57561;SDS011;43397;51.530;5.974;2023-06-10T04:08:28;17.33;;;15.52;;
57561;SDS011;43397;51.530;5.974;2023-06-10T04:10:54;18.90;;;16.38;;
57561;SDS011;43397;51.530;5.974;2023-06-10T04:13:21;20.42;;;15.93;;
57561;SDS011;43397;51.530;5.974;2023-06-10T04:15:46;18.73;;;15.88;;
57561;SDS011;43397;51.530;5.974;2023-06-10T04:18:12;20.40;;;16.23;;
57561;SDS011;43397;51.530;5.974;2023-06-10T04:20:38;16.88;;;15.10;;
57561;SDS011;43397;51.530;5.974;2023-06-10T04:23:04;18.58;;;15.77;;
57561;SDS011;43397;51.530;5.974;2023-06-10T04:25:29;16.77;;;15.05;;
57561;SDS011;43397;51.530;5.974;2023-06-10T04:27:55;18.55;;;15.60;;
57561;SDS011;43397;51.530;5.974;2023-06-10T04:30:22;17.25;;;15.45;;
57561;SDS011;43397;51.530;5.974;2023-06-10T04:32:48;17.83;;;14.98;;
57561;SDS011;43397;51.530;5.974;2023-06-10T04:35:14;17.25;;;14.10;;
57561;SDS011;43397;51.530;5.974;2023-06-10T04:37:40;17.00;;;14.90;;
57561;SDS011;43397;51.530;5.974;2023-06-10T04:40:06;17.40;;;14.95;;
57561;SDS011;43397;51.530;5.974;2023-06-10T04:42:33;16.33;;;14.70;;
57561;SDS011;43397;51.530;5.974;2023-06-10T04:44:58;15.70;;;14.10;;
57561;SDS011;43397;51.530;5.974;2023-06-10T04:47:25;16.35;;;14.25;;
57561;SDS011;43397;51.530;5.974;2023-06-10T04:49:51;15.35;;;13.75;;
57561;SDS011;43397;51.530;5.974;2023-06-10T04:52:17;17.05;;;15.18;;
57561;SDS011;43397;51.530;5.974;2023-06-10T04:54:43;17.25;;;13.55;;
57561;SDS011;43397;51.530;5.974;2023-06-10T04:57:08;18.27;;;14.32;;
57561;SDS011;43397;51.530;5.974;2023-06-10T04:59:34;15.57;;;13.15;;
57561;SDS011;43397;51.530;5.974;2023-06-10T05:02:00;17.13;;;12.75;;
57561;SDS011;43397;51.530;5.974;2023-06-10T05:04:27;14.77;;;13.25;;
57561;SDS011;43397;51.530;5.974;2023-06-10T05:06:52;15.52;;;13.25;;
57561;SDS011;43397;51.530;5.974;2023-06-10T05:09:18;14.88;;;12.02;;
57561;SDS011;43397;51.530;5.974;2023-06-10T05:11:44;16.00;;;13.30;;
57561;SDS011;43397;51.530;5.974;2023-06-10T05:14:09;14.50;;;12.90;;
57561;SDS011;43397;51.530;5.974;2023-06-10T05:16:35;14.15;;;12.15;;
57561;SDS011;43397;51.530;5.974;2023-06-10T05:19:01;15.13;;;12.30;;
57561;SDS011;43397;51.530;5.974;2023-06-10T05:21:28;15.40;;;12.70;;
57561;SDS011;43397;51.530;5.974;2023-06-10T05:23:53;16.02;;;12.13;;
57561;SDS011;43397;51.530;5.974;2023-06-10T05:26:19;14.63;;;11.93;;
57561;SDS011;43397;51.530;5.974;2023-06-10T05:28:44;13.98;;;12.35;;
57561;SDS011;43397;51.530;5.974;2023-06-10T05:31:10;13.15;;;11.80;;
57561;SDS011;43397;51.530;5.974;2023-06-10T05:33:36;14.52;;;12.07;;
57561;SDS011;43397;51.530;5.974;2023-06-10T05:36:02;14.45;;;10.52;;
57561;SDS011;43397;51.530;5.974;2023-06-10T05:38:29;14.45;;;12.20;;
57561;SDS011;43397;51.530;5.974;2023-06-10T05:40:54;13.60;;;11.20;;
57561;SDS011;43397;51.530;5.974;2023-06-10T05:43:20;16.02;;;11.05;;
57561;SDS011;43397;51.530;5.974;2023-06-10T05:45:46;14.90;;;11.32;;
57561;SDS011;43397;51.530;5.974;2023-06-10T05:48:11;14.02;;;10.88;;
57561;SDS011;43397;51.530;5.974;2023-06-10T05:50:37;13.75;;;10.30;;
57561;SDS011;43397;51.530;5.974;2023-06-10T05:53:03;12.95;;;10.30;;
57561;SDS011;43397;51.530;5.974;2023-06-10T05:55:30;13.07;;;10.65;;
57561;SDS011;43397;51.530;5.974;2023-06-10T05:57:58;11.52;;;9.82;;
57561;SDS011;43397;51.530;5.974;2023-06-10T06:02:50;14.77;;;10.48;;
57561;SDS011;43397;51.530;5.974;2023-06-10T06:05:16;14.68;;;9.88;;
57561;SDS011;43397;51.530;5.974;2023-06-10T06:07:41;13.88;;;9.55;;
57561;SDS011;43397;51.530;5.974;2023-06-10T06:10:07;14.85;;;9.70;;
57561;SDS011;43397;51.530;5.974;2023-06-10T06:12:34;12.90;;;10.20;;
57561;SDS011;43397;51.530;5.974;2023-06-10T06:15:00;13.73;;;9.10;;
57561;SDS011;43397;51.530;5.974;2023-06-10T06:17:26;13.23;;;9.45;;
57561;SDS011;43397;51.530;5.974;2023-06-10T06:19:51;12.15;;;9.40;;
57561;SDS011;43397;51.530;5.974;2023-06-10T06:22:17;10.45;;;9.23;;
57561;SDS011;43397;51.530;5.974;2023-06-10T06:24:43;14.27;;;9.60;;
57561;SDS011;43397;51.530;5.974;2023-06-10T06:27:08;11.20;;;9.10;;
57561;SDS011;43397;51.530;5.974;2023-06-10T06:29:35;10.85;;;8.60;;
57561;SDS011;43397;51.530;5.974;2023-06-10T06:32:01;13.82;;;9.20;;
57561;SDS011;43397;51.530;5.974;2023-06-10T06:34:27;13.23;;;9.18;;
57561;SDS011;43397;51.530;5.974;2023-06-10T06:36:52;73.80;;;14.02;;
57561;SDS011;43397;51.530;5.974;2023-06-10T06:39:18;15.85;;;8.75;;
57561;SDS011;43397;51.530;5.974;2023-06-10T06:41:44;12.60;;;8.27;;
57561;SDS011;43397;51.530;5.974;2023-06-10T06:44:09;14.50;;;9.20;;
57561;SDS011;43397;51.530;5.974;2023-06-10T06:46:36;12.20;;;8.05;;
57561;SDS011;43397;51.530;5.974;2023-06-10T06:49:02;12.38;;;8.63;;
57561;SDS011;43397;51.530;5.974;2023-06-10T06:51:28;13.35;;;8.45;;
57561;SDS011;43397;51.530;5.974;2023-06-10T06:53:54;10.38;;;8.07;;
57561;SDS011;43397;51.530;5.974;2023-06-10T06:56:19;12.18;;;8.70;;
57561;SDS011;43397;51.530;5.974;2023-06-10T06:58:45;12.05;;;7.63;;
57561;SDS011;43397;51.530;5.974;2023-06-10T07:01:11;12.32;;;8.40;;
57561;SDS011;43397;51.530;5.974;2023-06-10T07:03:38;14.48;;;8.18;;
57561;SDS011;43397;51.530;5.974;2023-06-10T07:06:04;13.05;;;8.70;;
57561;SDS011;43397;51.530;5.974;2023-06-10T07:08:29;11.05;;;7.88;;
57561;SDS011;43397;51.530;5.974;2023-06-10T07:10:55;12.75;;;8.05;;
57561;SDS011;43397;51.530;5.974;2023-06-10T07:13:21;11.02;;;7.82;;
57561;SDS011;43397;51.530;5.974;2023-06-10T07:15:46;10.77;;;7.13;;
57561;SDS011;43397;51.530;5.974;2023-06-10T07:18:12;11.43;;;7.07;;
57561;SDS011;43397;51.530;5.974;2023-06-10T07:20:41;11.48;;;7.60;;
57561;SDS011;43397;51.530;5.974;2023-06-10T07:23:07;12.70;;;7.65;;
57561;SDS011;43397;51.530;5.974;2023-06-10T07:25:32;11.65;;;7.55;;
57561;SDS011;43397;51.530;5.974;2023-06-10T07:27:58;12.00;;;7.05;;
57561;SDS011;43397;51.530;5.974;2023-06-10T07:30:24;11.85;;;7.28;;
57561;SDS011;43397;51.530;5.974;2023-06-10T07:32:50;10.10;;;7.40;;
57561;SDS011;43397;51.530;5.974;2023-06-10T07:35:16;8.90;;;6.80;;
57561;SDS011;43397;51.530;5.974;2023-06-10T07:37:44;8.70;;;6.85;;
57561;SDS011;43397;51.530;5.974;2023-06-10T07:40:10;13.38;;;7.32;;
57561;SDS011;43397;51.530;5.974;2023-06-10T07:42:36;12.90;;;7.82;;
57561;SDS011;43397;51.530;5.974;2023-06-10T07:45:02;12.57;;;7.60;;
57561;SDS011;43397;51.530;5.974;2023-06-10T07:47:28;12.68;;;7.60;;
57561;SDS011;43397;51.530;5.974;2023-06-10T07:49:53;10.48;;;6.88;;
57561;SDS011;43397;51.530;5.974;2023-06-10T07:52:19;12.35;;;7.05;;
57561;SDS011;43397;51.530;5.974;2023-06-10T07:54:46;10.18;;;7.65;;
57561;SDS011;43397;51.530;5.974;2023-06-10T07:57:12;9.98;;;7.10;;
57561;SDS011;43397;51.530;5.974;2023-06-10T07:59:37;10.00;;;7.00;;
57561;SDS011;43397;51.530;5.974;2023-06-10T08:02:03;10.77;;;6.97;;
57561;SDS011;43397;51.530;5.974;2023-06-10T08:04:29;9.13;;;6.70;;
57561;SDS011;43397;51.530;5.974;2023-06-10T08:06:55;11.25;;;6.68;;
57561;SDS011;43397;51.530;5.974;2023-06-10T08:09:21;10.32;;;7.10;;
57561;SDS011;43397;51.530;5.974;2023-06-10T08:11:48;12.85;;;6.93;;
57561;SDS011;43397;51.530;5.974;2023-06-10T08:14:14;11.02;;;6.70;;
57561;SDS011;43397;51.530;5.974;2023-06-10T08:16:39;10.75;;;7.07;;
57561;SDS011;43397;51.530;5.974;2023-06-10T08:19:05;9.75;;;6.95;;
57561;SDS011;43397;51.530;5.974;2023-06-10T08:21:31;10.73;;;6.60;;
57561;SDS011;43397;51.530;5.974;2023-06-10T08:23:56;9.52;;;6.47;;
57561;SDS011;43397;51.530;5.974;2023-06-10T08:26:23;9.43;;;6.40;;
57561;SDS011;43397;51.530;5.974;2023-06-10T08:28:50;8.20;;;6.47;;
57561;SDS011;43397;51.530;5.974;2023-06-10T08:31:15;9.93;;;6.55;;
57561;SDS011;43397;51.530;5.974;2023-06-10T08:33:41;11.13;;;6.75;;
57561;SDS011;43397;51.530;5.974;2023-06-10T08:36:07;8.38;;;6.40;;
57561;SDS011;43397;51.530;5.974;2023-06-10T08:38:33;11.02;;;6.75;;
57561;SDS011;43397;51.530;5.974;2023-06-10T08:40:59;7.80;;;6.13;;
57561;SDS011;43397;51.530;5.974;2023-06-10T08:43:27;10.43;;;6.82;;
57561;SDS011;43397;51.530;5.974;2023-06-10T08:45:59;8.65;;;6.53;;
57561;SDS011;43397;51.530;5.974;2023-06-10T08:48:26;12.40;;;6.78;;
57561;SDS011;43397;51.530;5.974;2023-06-10T08:50:54;8.57;;;6.30;;
57561;SDS011;43397;51.530;5.974;2023-06-10T08:53:21;9.75;;;6.60;;
57561;SDS011;43397;51.530;5.974;2023-06-10T08:55:50;9.57;;;6.60;;
57561;SDS011;43397;51.530;5.974;2023-06-10T08:58:17;11.60;;;6.85;;
57561;SDS011;43397;51.530;5.974;2023-06-10T09:00:43;8.45;;;6.45;;
57561;SDS011;43397;51.530;5.974;2023-06-10T09:03:10;10.52;;;6.75;;
57561;SDS011;43397;51.530;5.974;2023-06-10T09:05:37;10.30;;;6.72;;
57561;SDS011;43397;51.530;5.974;2023-06-10T09:08:03;10.02;;;6.10;;
57561;SDS011;43397;51.530;5.974;2023-06-10T09:10:30;11.38;;;6.47;;
57561;SDS011;43397;51.530;5.974;2023-06-10T09:12:57;11.43;;;6.88;;
57561;SDS011;43397;51.530;5.974;2023-06-10T09:15:23;9.27;;;6.53;;
57561;SDS011;43397;51.530;5.974;2023-06-10T09:17:49;10.88;;;6.93;;
57561;SDS011;43397;51.530;5.974;2023-06-10T09:20:16;8.85;;;6.75;;
57561;SDS011;43397;51.530;5.974;2023-06-10T09:22:42;9.38;;;6.50;;
57561;SDS011;43397;51.530;5.974;2023-06-10T09:25:08;9.70;;;7.00;;
57561;SDS011;43397;51.530;5.974;2023-06-10T09:27:43;10.10;;;6.57;;
57561;SDS011;43397;51.530;5.974;2023-06-10T09:30:10;10.50;;;6.38;;
57561;SDS011;43397;51.530;5.974;2023-06-10T09:32:48;8.15;;;6.20;;
57561;SDS011;43397;51.530;5.974;2023-06-10T09:35:14;8.55;;;6.22;;
57561;SDS011;43397;51.530;5.974;2023-06-10T09:37:41;7.93;;;6.07;;
57561;SDS011;43397;51.530;5.974;2023-06-10T09:40:09;13.45;;;6.85;;
57561;SDS011;43397;51.530;5.974;2023-06-10T09:42:38;8.45;;;6.40;;
57561;SDS011;43397;51.530;5.974;2023-06-10T09:45:04;10.60;;;7.32;;
57561;SDS011;43397;51.530;5.974;2023-06-10T09:47:31;8.43;;;7.13;;
57561;SDS011;43397;51.530;5.974;2023-06-10T09:49:57;9.10;;;6.60;;
57561;SDS011;43397;51.530;5.974;2023-06-10T09:52:23;11.38;;;6.47;;
57561;SDS011;43397;51.530;5.974;2023-06-10T09:54:51;10.23;;;6.88;;
57561;SDS011;43397;51.530;5.974;2023-06-10T09:57:16;8.63;;;6.85;;
57561;SDS011;43397;51.530;5.974;2023-06-10T09:59:43;8.85;;;6.68;;
57561;SDS011;43397;51.530;5.974;2023-06-10T10:02:12;9.75;;;6.95;;
57561;SDS011;43397;51.530;5.974;2023-06-10T10:04:39;9.55;;;6.68;;
57561;SDS011;43397;51.530;5.974;2023-06-10T10:07:04;8.77;;;6.35;;
57561;SDS011;43397;51.530;5.974;2023-06-10T10:09:30;10.23;;;6.97;;
57561;SDS011;43397;51.530;5.974;2023-06-10T10:11:57;8.70;;;7.03;;
57561;SDS011;43397;51.530;5.974;2023-06-10T10:14:25;9.38;;;6.90;;
57561;SDS011;43397;51.530;5.974;2023-06-10T10:16:51;10.15;;;6.43;;
57561;SDS011;43397;51.530;5.974;2023-06-10T10:19:18;10.45;;;7.20;;
57561;SDS011;43397;51.530;5.974;2023-06-10T10:21:49;8.48;;;6.72;;
57561;SDS011;43397;51.530;5.974;2023-06-10T10:24:20;11.60;;;7.25;;
57561;SDS011;43397;51.530;5.974;2023-06-10T10:26:48;16.08;;;7.72;;
57561;SDS011;43397;51.530;5.974;2023-06-10T10:29:20;13.43;;;7.15;;
57561;SDS011;43397;51.530;5.974;2023-06-10T10:31:50;10.65;;;6.75;;
57561;SDS011;43397;51.530;5.974;2023-06-10T10:34:18;11.40;;;7.82;;
57561;SDS011;43397;51.530;5.974;2023-06-10T10:36:48;9.40;;;7.05;;
57561;SDS011;43397;51.530;5.974;2023-06-10T10:39:15;9.20;;;6.75;;
57561;SDS011;43397;51.530;5.974;2023-06-10T10:41:41;8.50;;;7.03;;
57561;SDS011;43397;51.530;5.974;2023-06-10T10:44:08;9.77;;;7.35;;
57561;SDS011;43397;51.530;5.974;2023-06-10T10:46:42;8.93;;;6.63;;
57561;SDS011;43397;51.530;5.974;2023-06-10T10:49:09;8.98;;;7.15;;
57561;SDS011;43397;51.530;5.974;2023-06-10T10:51:37;9.20;;;6.85;;
57561;SDS011;43397;51.530;5.974;2023-06-10T10:56:38;10.13;;;7.05;;
57561;SDS011;43397;51.530;5.974;2023-06-10T10:59:04;10.50;;;7.55;;
57561;SDS011;43397;51.530;5.974;2023-06-10T11:01:39;10.23;;;6.90;;
57561;SDS011;43397;51.530;5.974;2023-06-10T11:04:07;10.77;;;7.40;;
57561;SDS011;43397;51.530;5.974;2023-06-10T11:06:33;9.50;;;7.28;;
